sensor_id;sensor_type;location;lat;lon;timestamp;temperature;humidity
15959;DHT22;8078;47.822;9.402;2023-03-14T00:00:35;7.00;99.90
15959;DHT22;8078;47.822;9.402;2023-03-14T00:03:01;6.70;99.90
15959;DHT22;8078;47.822;9.402;2023-03-14T00:05:27;6.60;99.90
15959;DHT22;8078;47.822;9.402;2023-03-14T00:07:53;6.50;99.90
15959;DHT22;8078;47.822;9.402;2023-03-14T00:10:19;6.50;99.90
15959;DHT22;8078;47.822;9.402;2023-03-14T00:12:45;6.40;99.90
15959;DHT22;8078;47.822;9.402;2023-03-14T00:15:11;6.40;99.90
15959;DHT22;8078;47.822;9.402;2023-03-14T00:17:37;6.40;99.90
15959;DHT22;8078;47.822;9.402;2023-03-14T00:20:05;6.40;99.90
15959;DHT22;8078;47.822;9.402;2023-03-14T00:22:40;6.40;99.90
15959;DHT22;8078;47.822;9.402;2023-03-14T00:25:07;6.30;99.90
15959;DHT22;8078;47.822;9.402;2023-03-14T00:27:34;6.30;99.90
15959;DHT22;8078;47.822;9.402;2023-03-14T00:30:00;6.20;99.90
15959;DHT22;8078;47.822;9.402;2023-03-14T00:32:25;6.20;99.90
15959;DHT22;8078;47.822;9.402;2023-03-14T00:34:51;6.20;99.90
15959;DHT22;8078;47.822;9.402;2023-03-14T00:37:16;6.20;99.90
15959;DHT22;8078;47.822;9.402;2023-03-14T00:39:42;6.20;99.90
15959;DHT22;8078;47.822;9.402;2023-03-14T00:42:07;6.10;99.90
15959;DHT22;8078;47.822;9.402;2023-03-14T00:44:33;6.20;99.90
15959;DHT22;8078;47.822;9.402;2023-03-14T00:46:59;6.10;99.90
15959;DHT22;8078;47.822;9.402;2023-03-14T00:49:24;6.10;99.90
15959;DHT22;8078;47.822;9.402;2023-03-14T00:51:50;6.00;99.90
15959;DHT22;8078;47.822;9.402;2023-03-14T00:54:17;6.00;99.90
15959;DHT22;8078;47.822;9.402;2023-03-14T00:56:43;6.00;99.90
15959;DHT22;8078;47.822;9.402;2023-03-14T00:59:08;5.90;99.90
15959;DHT22;8078;47.822;9.402;2023-03-14T01:01:34;5.90;99.90
15959;DHT22;8078;47.822;9.402;2023-03-14T01:03:59;5.90;99.90
15959;DHT22;8078;47.822;9.402;2023-03-14T01:06:26;5.90;99.90
15959;DHT22;8078;47.822;9.402;2023-03-14T01:08:53;5.80;99.90
15959;DHT22;8078;47.822;9.402;2023-03-14T01:11:25;5.80;99.90
15959;DHT22;8078;47.822;9.402;2023-03-14T01:13:51;5.80;99.90
15959;DHT22;8078;47.822;9.402;2023-03-14T01:16:17;5.70;99.90
15959;DHT22;8078;47.822;9.402;2023-03-14T01:18:44;5.70;99.90
15959;DHT22;8078;47.822;9.402;2023-03-14T01:21:18;5.70;99.90
15959;DHT22;8078;47.822;9.402;2023-03-14T01:23:46;5.70;99.90
15959;DHT22;8078;47.822;9.402;2023-03-14T01:26:13;5.70;99.90
15959;DHT22;8078;47.822;9.402;2023-03-14T01:28:39;5.60;99.90
15959;DHT22;8078;47.822;9.402;2023-03-14T01:31:07;5.60;99.90
15959;DHT22;8078;47.822;9.402;2023-03-14T01:33:32;5.60;99.90
15959;DHT22;8078;47.822;9.402;2023-03-14T01:35:58;5.50;99.90
15959;DHT22;8078;47.822;9.402;2023-03-14T01:38:24;5.50;99.90
15959;DHT22;8078;47.822;9.402;2023-03-14T01:40:49;5.50;99.90
15959;DHT22;8078;47.822;9.402;2023-03-14T01:43:18;5.50;99.90
15959;DHT22;8078;47.822;9.402;2023-03-14T01:48:45;5.50;99.90
15959;DHT22;8078;47.822;9.402;2023-03-14T01:51:43;5.50;99.90
15959;DHT22;8078;47.822;9.402;2023-03-14T01:54:55;5.50;99.90
15959;DHT22;8078;47.822;9.402;2023-03-14T01:59:47;5.50;99.90
15959;DHT22;8078;47.822;9.402;2023-03-14T02:02:15;5.50;99.90
15959;DHT22;8078;47.822;9.402;2023-03-14T02:04:41;5.60;99.90
15959;DHT22;8078;47.822;9.402;2023-03-14T02:07:20;5.60;99.90
15959;DHT22;8078;47.822;9.402;2023-03-14T02:09:48;5.60;99.90
15959;DHT22;8078;47.822;9.402;2023-03-14T02:12:16;5.60;99.90
15959;DHT22;8078;47.822;9.402;2023-03-14T02:14:43;5.60;99.90
15959;DHT22;8078;47.822;9.402;2023-03-14T02:17:14;5.60;99.90
15959;DHT22;8078;47.822;9.402;2023-03-14T02:19:57;5.50;99.90
15959;DHT22;8078;47.822;9.402;2023-03-14T02:22:27;5.50;99.90
15959;DHT22;8078;47.822;9.402;2023-03-14T02:27:37;5.60;99.90
15959;DHT22;8078;47.822;9.402;2023-03-14T02:30:25;5.60;99.90
15959;DHT22;8078;47.822;9.402;2023-03-14T02:32:55;5.60;99.90
15959;DHT22;8078;47.822;9.402;2023-03-14T02:35:24;5.60;99.90
15959;DHT22;8078;47.822;9.402;2023-03-14T02:37:55;5.60;99.90
15959;DHT22;8078;47.822;9.402;2023-03-14T02:40:22;5.60;99.90
15959;DHT22;8078;47.822;9.402;2023-03-14T02:42:47;5.60;99.90
15959;DHT22;8078;47.822;9.402;2023-03-14T02:47:46;5.50;99.90
15959;DHT22;8078;47.822;9.402;2023-03-14T02:50:18;5.50;99.90
15959;DHT22;8078;47.822;9.402;2023-03-14T02:52:45;5.50;99.90
15959;DHT22;8078;47.822;9.402;2023-03-14T02:55:11;5.50;99.90
15959;DHT22;8078;47.822;9.402;2023-03-14T02:57:37;5.40;99.90
15959;DHT22;8078;47.822;9.402;2023-03-14T03:00:04;5.50;99.90
15959;DHT22;8078;47.822;9.402;2023-03-14T03:02:30;5.40;99.90
15959;DHT22;8078;47.822;9.402;2023-03-14T03:04:56;5.40;99.90
15959;DHT22;8078;47.822;9.402;2023-03-14T03:07:21;5.40;99.90
15959;DHT22;8078;47.822;9.402;2023-03-14T03:09:47;5.40;99.90
15959;DHT22;8078;47.822;9.402;2023-03-14T03:12:12;5.40;99.90
15959;DHT22;8078;47.822;9.402;2023-03-14T03:14:38;5.30;99.90
15959;DHT22;8078;47.822;9.402;2023-03-14T03:17:04;5.40;99.90
15959;DHT22;8078;47.822;9.402;2023-03-14T03:19:30;5.40;99.90
15959;DHT22;8078;47.822;9.402;2023-03-14T03:21:56;5.40;99.90
15959;DHT22;8078;47.822;9.402;2023-03-14T03:24:23;5.30;99.90
15959;DHT22;8078;47.822;9.402;2023-03-14T03:26:48;5.30;99.90
15959;DHT22;8078;47.822;9.402;2023-03-14T03:29:14;5.30;99.90
15959;DHT22;8078;47.822;9.402;2023-03-14T03:31:40;5.30;99.90
15959;DHT22;8078;47.822;9.402;2023-03-14T03:34:05;5.30;99.90
15959;DHT22;8078;47.822;9.402;2023-03-14T03:36:31;5.30;99.90
15959;DHT22;8078;47.822;9.402;2023-03-14T03:38:56;5.30;99.90
15959;DHT22;8078;47.822;9.402;2023-03-14T03:41:22;5.40;99.90
15959;DHT22;8078;47.822;9.402;2023-03-14T03:43:47;5.30;99.90
15959;DHT22;8078;47.822;9.402;2023-03-14T03:46:13;5.30;99.90
15959;DHT22;8078;47.822;9.402;2023-03-14T03:48:39;5.30;99.90
15959;DHT22;8078;47.822;9.402;2023-03-14T03:51:04;5.30;99.90
15959;DHT22;8078;47.822;9.402;2023-03-14T03:53:30;5.30;99.90
15959;DHT22;8078;47.822;9.402;2023-03-14T03:55:56;5.30;99.90
15959;DHT22;8078;47.822;9.402;2023-03-14T03:58:21;5.30;99.90
15959;DHT22;8078;47.822;9.402;2023-03-14T04:00:47;5.30;99.90
15959;DHT22;8078;47.822;9.402;2023-03-14T04:03:12;5.30;99.90
15959;DHT22;8078;47.822;9.402;2023-03-14T04:05:38;5.30;99.90
15959;DHT22;8078;47.822;9.402;2023-03-14T04:08:04;5.30;99.90
15959;DHT22;8078;47.822;9.402;2023-03-14T04:10:30;5.20;99.90
15959;DHT22;8078;47.822;9.402;2023-03-14T04:12:58;5.20;99.90
15959;DHT22;8078;47.822;9.402;2023-03-14T04:15:24;5.20;99.90
15959;DHT22;8078;47.822;9.402;2023-03-14T04:17:49;5.20;99.90
15959;DHT22;8078;47.822;9.402;2023-03-14T04:20:15;5.20;99.90
15959;DHT22;8078;47.822;9.402;2023-03-14T04:22:40;5.20;99.90
15959;DHT22;8078;47.822;9.402;2023-03-14T04:25:07;5.20;99.90
15959;DHT22;8078;47.822;9.402;2023-03-14T04:27:32;5.20;99.90
15959;DHT22;8078;47.822;9.402;2023-03-14T04:29:58;5.20;99.90
15959;DHT22;8078;47.822;9.402;2023-03-14T04:32:23;5.20;99.90
15959;DHT22;8078;47.822;9.402;2023-03-14T04:34:49;5.30;99.90
15959;DHT22;8078;47.822;9.402;2023-03-14T04:37:15;5.30;99.90
15959;DHT22;8078;47.822;9.402;2023-03-14T04:39:41;5.30;99.90
15959;DHT22;8078;47.822;9.402;2023-03-14T04:42:07;5.30;99.90
15959;DHT22;8078;47.822;9.402;2023-03-14T04:44:33;5.30;99.90
15959;DHT22;8078;47.822;9.402;2023-03-14T04:46:58;5.30;99.90
15959;DHT22;8078;47.822;9.402;2023-03-14T04:49:24;5.30;99.90
15959;DHT22;8078;47.822;9.402;2023-03-14T04:51:49;5.30;99.90
15959;DHT22;8078;47.822;9.402;2023-03-14T04:54:18;5.20;99.90
15959;DHT22;8078;47.822;9.402;2023-03-14T04:56:43;5.20;99.90
15959;DHT22;8078;47.822;9.402;2023-03-14T04:59:09;5.20;99.90
15959;DHT22;8078;47.822;9.402;2023-03-14T05:01:35;5.20;99.90
15959;DHT22;8078;47.822;9.402;2023-03-14T05:04:01;5.30;99.90
15959;DHT22;8078;47.822;9.402;2023-03-14T05:06:26;5.30;99.90
15959;DHT22;8078;47.822;9.402;2023-03-14T05:08:52;5.20;99.90
15959;DHT22;8078;47.822;9.402;2023-03-14T05:11:17;5.20;99.90
15959;DHT22;8078;47.822;9.402;2023-03-14T05:13:43;5.30;99.90
15959;DHT22;8078;47.822;9.402;2023-03-14T05:16:10;5.20;99.90
15959;DHT22;8078;47.822;9.402;2023-03-14T05:18:36;5.20;99.90
15959;DHT22;8078;47.822;9.402;2023-03-14T05:21:03;5.20;99.90
15959;DHT22;8078;47.822;9.402;2023-03-14T05:23:29;5.30;99.90
15959;DHT22;8078;47.822;9.402;2023-03-14T05:25:55;5.20;99.90
15959;DHT22;8078;47.822;9.402;2023-03-14T05:28:20;5.20;99.90
15959;DHT22;8078;47.822;9.402;2023-03-14T05:30:46;5.20;99.90
15959;DHT22;8078;47.822;9.402;2023-03-14T05:33:12;5.20;99.90
15959;DHT22;8078;47.822;9.402;2023-03-14T05:35:37;5.20;99.90
15959;DHT22;8078;47.822;9.402;2023-03-14T05:38:03;5.20;99.90
15959;DHT22;8078;47.822;9.402;2023-03-14T05:40:29;5.20;99.90
15959;DHT22;8078;47.822;9.402;2023-03-14T05:42:58;5.20;99.90
15959;DHT22;8078;47.822;9.402;2023-03-14T05:45:24;5.20;99.90
15959;DHT22;8078;47.822;9.402;2023-03-14T05:47:49;5.10;99.90
15959;DHT22;8078;47.822;9.402;2023-03-14T05:50:15;5.20;99.90
15959;DHT22;8078;47.822;9.402;2023-03-14T05:52:40;5.20;99.90
15959;DHT22;8078;47.822;9.402;2023-03-14T05:55:06;5.20;99.90
15959;DHT22;8078;47.822;9.402;2023-03-14T05:57:32;5.20;99.90
15959;DHT22;8078;47.822;9.402;2023-03-14T05:59:57;5.20;99.90
15959;DHT22;8078;47.822;9.402;2023-03-14T06:02:23;5.20;99.90
15959;DHT22;8078;47.822;9.402;2023-03-14T06:04:48;5.20;99.90
15959;DHT22;8078;47.822;9.402;2023-03-14T06:07:14;5.20;99.90
15959;DHT22;8078;47.822;9.402;2023-03-14T06:09:39;5.10;99.90
15959;DHT22;8078;47.822;9.402;2023-03-14T06:12:06;5.20;99.90
15959;DHT22;8078;47.822;9.402;2023-03-14T06:14:32;5.20;99.90
15959;DHT22;8078;47.822;9.402;2023-03-14T06:16:57;5.30;99.90
15959;DHT22;8078;47.822;9.402;2023-03-14T06:19:25;5.30;99.90
15959;DHT22;8078;47.822;9.402;2023-03-14T06:21:51;5.30;99.90
15959;DHT22;8078;47.822;9.402;2023-03-14T06:24:17;5.30;99.90
15959;DHT22;8078;47.822;9.402;2023-03-14T06:26:42;5.30;99.90
15959;DHT22;8078;47.822;9.402;2023-03-14T06:29:08;5.30;99.90
15959;DHT22;8078;47.822;9.402;2023-03-14T06:31:34;5.30;99.90
15959;DHT22;8078;47.822;9.402;2023-03-14T06:33:59;5.30;99.90
15959;DHT22;8078;47.822;9.402;2023-03-14T06:36:25;5.40;99.90
15959;DHT22;8078;47.822;9.402;2023-03-14T06:38:50;5.30;99.90
15959;DHT22;8078;47.822;9.402;2023-03-14T06:41:16;5.30;99.90
15959;DHT22;8078;47.822;9.402;2023-03-14T06:43:42;5.30;99.90
15959;DHT22;8078;47.822;9.402;2023-03-14T06:46:07;5.40;99.90
15959;DHT22;8078;47.822;9.402;2023-03-14T06:48:33;5.30;99.90
15959;DHT22;8078;47.822;9.402;2023-03-14T06:50:58;5.30;99.90
15959;DHT22;8078;47.822;9.402;2023-03-14T06:53:24;5.30;99.90
15959;DHT22;8078;47.822;9.402;2023-03-14T06:55:50;5.30;99.90
15959;DHT22;8078;47.822;9.402;2023-03-14T06:58:15;5.40;99.90
15959;DHT22;8078;47.822;9.402;2023-03-14T07:00:41;5.40;99.90
15959;DHT22;8078;47.822;9.402;2023-03-14T07:03:08;5.40;99.90
15959;DHT22;8078;47.822;9.402;2023-03-14T07:05:34;5.40;99.90
15959;DHT22;8078;47.822;9.402;2023-03-14T07:08:00;5.40;99.90
15959;DHT22;8078;47.822;9.402;2023-03-14T07:10:26;5.40;99.90
15959;DHT22;8078;47.822;9.402;2023-03-14T07:12:51;5.40;99.90
15959;DHT22;8078;47.822;9.402;2023-03-14T07:15:18;5.40;99.90
15959;DHT22;8078;47.822;9.402;2023-03-14T07:17:43;5.40;99.90
15959;DHT22;8078;47.822;9.402;2023-03-14T07:20:09;5.50;99.90
15959;DHT22;8078;47.822;9.402;2023-03-14T07:22:35;5.50;99.90
15959;DHT22;8078;47.822;9.402;2023-03-14T07:25:00;5.50;99.90
15959;DHT22;8078;47.822;9.402;2023-03-14T07:27:26;5.50;99.90
15959;DHT22;8078;47.822;9.402;2023-03-14T07:29:51;5.50;99.90
15959;DHT22;8078;47.822;9.402;2023-03-14T07:32:17;5.60;99.90
15959;DHT22;8078;47.822;9.402;2023-03-14T07:34:43;5.60;99.90
15959;DHT22;8078;47.822;9.402;2023-03-14T07:37:09;5.70;99.90
15959;DHT22;8078;47.822;9.402;2023-03-14T07:39:34;5.80;99.90
15959;DHT22;8078;47.822;9.402;2023-03-14T07:42:00;5.80;99.90
15959;DHT22;8078;47.822;9.402;2023-03-14T07:44:26;5.90;99.90
15959;DHT22;8078;47.822;9.402;2023-03-14T07:46:52;5.90;99.90
15959;DHT22;8078;47.822;9.402;2023-03-14T07:49:18;6.00;99.90
15959;DHT22;8078;47.822;9.402;2023-03-14T07:51:43;6.10;99.90
15959;DHT22;8078;47.822;9.402;2023-03-14T07:54:11;6.10;99.90
15959;DHT22;8078;47.822;9.402;2023-03-14T07:56:37;6.20;99.90
15959;DHT22;8078;47.822;9.402;2023-03-14T07:59:02;6.20;99.90
15959;DHT22;8078;47.822;9.402;2023-03-14T08:01:29;6.20;99.90
15959;DHT22;8078;47.822;9.402;2023-03-14T08:03:54;6.30;99.90
15959;DHT22;8078;47.822;9.402;2023-03-14T08:06:20;6.40;99.90
15959;DHT22;8078;47.822;9.402;2023-03-14T08:08:46;6.30;99.90
15959;DHT22;8078;47.822;9.402;2023-03-14T08:11:11;6.40;99.90
15959;DHT22;8078;47.822;9.402;2023-03-14T08:13:37;6.40;99.90
15959;DHT22;8078;47.822;9.402;2023-03-14T08:16:04;6.50;99.90
15959;DHT22;8078;47.822;9.402;2023-03-14T08:18:30;6.60;99.90
15959;DHT22;8078;47.822;9.402;2023-03-14T08:20:55;6.60;99.90
15959;DHT22;8078;47.822;9.402;2023-03-14T08:23:21;6.50;99.90
15959;DHT22;8078;47.822;9.402;2023-03-14T08:25:49;6.50;99.90
15959;DHT22;8078;47.822;9.402;2023-03-14T08:28:15;6.50;99.90
15959;DHT22;8078;47.822;9.402;2023-03-14T08:30:41;6.50;99.90
15959;DHT22;8078;47.822;9.402;2023-03-14T08:33:07;6.60;99.90
15959;DHT22;8078;47.822;9.402;2023-03-14T08:35:32;6.70;99.90
15959;DHT22;8078;47.822;9.402;2023-03-14T08:37:58;6.70;99.90
15959;DHT22;8078;47.822;9.402;2023-03-14T08:40:24;6.80;99.90
15959;DHT22;8078;47.822;9.402;2023-03-14T08:42:50;7.00;99.90
15959;DHT22;8078;47.822;9.402;2023-03-14T08:45:16;7.10;99.90
15959;DHT22;8078;47.822;9.402;2023-03-14T08:47:43;7.00;99.90
15959;DHT22;8078;47.822;9.402;2023-03-14T08:50:09;7.00;99.90
15959;DHT22;8078;47.822;9.402;2023-03-14T08:52:35;7.00;99.90
15959;DHT22;8078;47.822;9.402;2023-03-14T08:55:03;6.90;99.90
15959;DHT22;8078;47.822;9.402;2023-03-14T08:57:29;6.80;99.90
15959;DHT22;8078;47.822;9.402;2023-03-14T08:59:55;7.00;99.90
15959;DHT22;8078;47.822;9.402;2023-03-14T09:02:23;6.90;99.90
15959;DHT22;8078;47.822;9.402;2023-03-14T09:04:52;6.90;99.90
15959;DHT22;8078;47.822;9.402;2023-03-14T09:07:18;7.10;99.90
15959;DHT22;8078;47.822;9.402;2023-03-14T09:09:44;7.40;99.90
15959;DHT22;8078;47.822;9.402;2023-03-14T09:12:11;7.60;99.90
15959;DHT22;8078;47.822;9.402;2023-03-14T09:14:36;7.50;99.90
15959;DHT22;8078;47.822;9.402;2023-03-14T09:17:03;7.60;99.90
15959;DHT22;8078;47.822;9.402;2023-03-14T09:19:29;7.50;99.90
15959;DHT22;8078;47.822;9.402;2023-03-14T09:21:55;7.50;99.90
15959;DHT22;8078;47.822;9.402;2023-03-14T09:24:21;7.60;99.90
15959;DHT22;8078;47.822;9.402;2023-03-14T09:26:46;7.50;99.90
15959;DHT22;8078;47.822;9.402;2023-03-14T09:29:12;7.50;99.90
15959;DHT22;8078;47.822;9.402;2023-03-14T09:31:38;7.60;99.90
15959;DHT22;8078;47.822;9.402;2023-03-14T09:34:03;7.70;99.90
15959;DHT22;8078;47.822;9.402;2023-03-14T09:36:29;7.70;99.90
15959;DHT22;8078;47.822;9.402;2023-03-14T09:38:55;7.60;99.90
15959;DHT22;8078;47.822;9.402;2023-03-14T09:44:08;7.60;99.90
15959;DHT22;8078;47.822;9.402;2023-03-14T09:46:37;7.60;99.90
15959;DHT22;8078;47.822;9.402;2023-03-14T09:49:17;7.60;99.90
15959;DHT22;8078;47.822;9.402;2023-03-14T09:51:51;7.60;99.90
15959;DHT22;8078;47.822;9.402;2023-03-14T09:54:39;7.60;99.90
15959;DHT22;8078;47.822;9.402;2023-03-14T09:57:11;7.60;99.90
15959;DHT22;8078;47.822;9.402;2023-03-14T09:59:39;7.60;99.90
15959;DHT22;8078;47.822;9.402;2023-03-14T10:04:42;7.60;99.90
15959;DHT22;8078;47.822;9.402;2023-03-14T10:07:29;7.50;99.90
15959;DHT22;8078;47.822;9.402;2023-03-14T10:09:55;7.50;99.90
15959;DHT22;8078;47.822;9.402;2023-03-14T10:12:34;7.50;99.90
15959;DHT22;8078;47.822;9.402;2023-03-14T10:15:09;7.50;99.90
15959;DHT22;8078;47.822;9.402;2023-03-14T10:17:43;7.40;99.90
15959;DHT22;8078;47.822;9.402;2023-03-14T10:23:07;7.50;99.90
15959;DHT22;8078;47.822;9.402;2023-03-14T10:25:46;7.40;99.90
15959;DHT22;8078;47.822;9.402;2023-03-14T10:30:49;7.40;99.90
15959;DHT22;8078;47.822;9.402;2023-03-14T10:35:44;7.40;99.90
15959;DHT22;8078;47.822;9.402;2023-03-14T10:38:15;7.30;99.90
15959;DHT22;8078;47.822;9.402;2023-03-14T10:40:47;7.30;99.90
15959;DHT22;8078;47.822;9.402;2023-03-14T10:43:21;7.30;99.90
15959;DHT22;8078;47.822;9.402;2023-03-14T10:45:57;7.20;99.90
15959;DHT22;8078;47.822;9.402;2023-03-14T10:48:33;7.20;99.90
15959;DHT22;8078;47.822;9.402;2023-03-14T10:51:07;7.20;99.90
15959;DHT22;8078;47.822;9.402;2023-03-14T10:53:48;7.20;99.90
15959;DHT22;8078;47.822;9.402;2023-03-14T10:56:18;7.20;99.90
15959;DHT22;8078;47.822;9.402;2023-03-14T10:58:46;7.30;99.90
15959;DHT22;8078;47.822;9.402;2023-03-14T11:04:20;7.20;99.90
15959;DHT22;8078;47.822;9.402;2023-03-14T11:06:56;7.20;99.90
15959;DHT22;8078;47.822;9.402;2023-03-14T11:09:36;7.00;99.90
15959;DHT22;8078;47.822;9.402;2023-03-14T11:14:55;7.00;99.90
15959;DHT22;8078;47.822;9.402;2023-03-14T11:17:30;6.80;99.90
15959;DHT22;8078;47.822;9.402;2023-03-14T11:23:12;6.60;99.90
15959;DHT22;8078;47.822;9.402;2023-03-14T11:26:00;6.40;99.90
15959;DHT22;8078;47.822;9.402;2023-03-14T11:28:38;6.20;99.90
15959;DHT22;8078;47.822;9.402;2023-03-14T11:31:19;6.10;99.90
15959;DHT22;8078;47.822;9.402;2023-03-14T11:34:00;6.00;99.90
15959;DHT22;8078;47.822;9.402;2023-03-14T11:36:37;6.00;99.90
15959;DHT22;8078;47.822;9.402;2023-03-14T11:39:14;6.00;99.90
15959;DHT22;8078;47.822;9.402;2023-03-14T11:41:51;5.90;99.90
15959;DHT22;8078;47.822;9.402;2023-03-14T11:44:37;5.80;99.90
15959;DHT22;8078;47.822;9.402;2023-03-14T11:52:38;5.80;99.90
15959;DHT22;8078;47.822;9.402;2023-03-14T11:55:26;5.70;99.90
15959;DHT22;8078;47.822;9.402;2023-03-14T11:57:58;5.70;99.90
15959;DHT22;8078;47.822;9.402;2023-03-14T12:00:25;5.60;99.90
15959;DHT22;8078;47.822;9.402;2023-03-14T12:03:11;5.50;99.90
15959;DHT22;8078;47.822;9.402;2023-03-14T12:13:55;5.10;99.90
15959;DHT22;8078;47.822;9.402;2023-03-14T12:16:26;5.00;99.90
15959;DHT22;8078;47.822;9.402;2023-03-14T12:18:53;5.00;99.90
15959;DHT22;8078;47.822;9.402;2023-03-14T12:21:41;5.00;99.90
15959;DHT22;8078;47.822;9.402;2023-03-14T12:24:22;5.00;99.90
15959;DHT22;8078;47.822;9.402;2023-03-14T12:26:56;5.00;99.90
15959;DHT22;8078;47.822;9.402;2023-03-14T12:29:22;4.90;99.90
15959;DHT22;8078;47.822;9.402;2023-03-14T12:32:05;4.80;99.90
15959;DHT22;8078;47.822;9.402;2023-03-14T12:34:42;4.80;99.90
15959;DHT22;8078;47.822;9.402;2023-03-14T12:37:19;4.70;99.90
15959;DHT22;8078;47.822;9.402;2023-03-14T12:39:53;4.30;99.90
15959;DHT22;8078;47.822;9.402;2023-03-14T12:42:51;4.20;99.90
15959;DHT22;8078;47.822;9.402;2023-03-14T12:45:32;4.20;99.90
15959;DHT22;8078;47.822;9.402;2023-03-14T12:50:56;4.10;99.90
15959;DHT22;8078;47.822;9.402;2023-03-14T13:01:59;4.20;99.90
15959;DHT22;8078;47.822;9.402;2023-03-14T13:04:52;4.20;99.90
15959;DHT22;8078;47.822;9.402;2023-03-14T13:12:40;4.30;99.90
15959;DHT22;8078;47.822;9.402;2023-03-14T13:15:18;4.30;99.90
15959;DHT22;8078;47.822;9.402;2023-03-14T13:17:47;4.30;99.90
15959;DHT22;8078;47.822;9.402;2023-03-14T13:20:34;4.30;99.90
15959;DHT22;8078;47.822;9.402;2023-03-14T13:23:00;4.40;99.90
15959;DHT22;8078;47.822;9.402;2023-03-14T13:25:32;4.40;99.90
15959;DHT22;8078;47.822;9.402;2023-03-14T13:27:58;4.40;99.90
15959;DHT22;8078;47.822;9.402;2023-03-14T13:30:27;4.40;99.90
15959;DHT22;8078;47.822;9.402;2023-03-14T13:32:55;4.40;99.90
15959;DHT22;8078;47.822;9.402;2023-03-14T13:35:26;4.30;99.90
15959;DHT22;8078;47.822;9.402;2023-03-14T13:37:56;4.20;99.90
15959;DHT22;8078;47.822;9.402;2023-03-14T13:40:32;4.10;99.90
15959;DHT22;8078;47.822;9.402;2023-03-14T13:43:10;3.90;99.90
15959;DHT22;8078;47.822;9.402;2023-03-14T13:45:48;3.70;99.90
15959;DHT22;8078;47.822;9.402;2023-03-14T13:48:15;3.50;99.90
15959;DHT22;8078;47.822;9.402;2023-03-14T13:50:48;3.50;99.90
15959;DHT22;8078;47.822;9.402;2023-03-14T13:53:15;3.50;99.90
15959;DHT22;8078;47.822;9.402;2023-03-14T13:55:40;3.50;99.90
15959;DHT22;8078;47.822;9.402;2023-03-14T13:58:32;3.50;99.90
15959;DHT22;8078;47.822;9.402;2023-03-14T14:01:05;3.60;99.90
15959;DHT22;8078;47.822;9.402;2023-03-14T14:03:37;3.60;99.90
15959;DHT22;8078;47.822;9.402;2023-03-14T14:06:08;3.70;99.90
15959;DHT22;8078;47.822;9.402;2023-03-14T14:08:35;3.80;99.90
15959;DHT22;8078;47.822;9.402;2023-03-14T14:11:02;3.90;99.90
15959;DHT22;8078;47.822;9.402;2023-03-14T14:13:32;4.00;99.90
15959;DHT22;8078;47.822;9.402;2023-03-14T14:16:00;4.10;99.90
15959;DHT22;8078;47.822;9.402;2023-03-14T14:18:29;4.20;99.90
15959;DHT22;8078;47.822;9.402;2023-03-14T14:20:55;4.30;99.90
15959;DHT22;8078;47.822;9.402;2023-03-14T14:23:24;4.40;99.90
15959;DHT22;8078;47.822;9.402;2023-03-14T14:25:55;4.40;99.90
15959;DHT22;8078;47.822;9.402;2023-03-14T14:28:35;4.50;99.90
15959;DHT22;8078;47.822;9.402;2023-03-14T14:33:42;4.60;99.90
15959;DHT22;8078;47.822;9.402;2023-03-14T14:36:17;4.70;99.90
15959;DHT22;8078;47.822;9.402;2023-03-14T14:38:49;4.70;99.90
15959;DHT22;8078;47.822;9.402;2023-03-14T14:41:15;4.80;99.90
15959;DHT22;8078;47.822;9.402;2023-03-14T14:43:41;4.80;99.90
15959;DHT22;8078;47.822;9.402;2023-03-14T14:46:08;4.70;99.90
15959;DHT22;8078;47.822;9.402;2023-03-14T14:48:37;4.80;99.90
15959;DHT22;8078;47.822;9.402;2023-03-14T14:51:05;4.80;99.90
15959;DHT22;8078;47.822;9.402;2023-03-14T14:53:39;4.70;99.90
15959;DHT22;8078;47.822;9.402;2023-03-14T14:56:17;4.70;99.90
15959;DHT22;8078;47.822;9.402;2023-03-14T14:58:46;4.70;99.90
15959;DHT22;8078;47.822;9.402;2023-03-14T15:03:45;4.80;99.90
15959;DHT22;8078;47.822;9.402;2023-03-14T15:06:13;4.80;99.90
15959;DHT22;8078;47.822;9.402;2023-03-14T15:08:39;4.90;99.90
15959;DHT22;8078;47.822;9.402;2023-03-14T15:11:05;4.90;99.90
15959;DHT22;8078;47.822;9.402;2023-03-14T15:13:31;4.90;99.90
15959;DHT22;8078;47.822;9.402;2023-03-14T15:15:56;5.00;99.90
15959;DHT22;8078;47.822;9.402;2023-03-14T15:18:24;5.00;99.90
15959;DHT22;8078;47.822;9.402;2023-03-14T15:20:50;5.00;99.90
15959;DHT22;8078;47.822;9.402;2023-03-14T15:23:19;4.80;99.90
15959;DHT22;8078;47.822;9.402;2023-03-14T15:25:45;4.80;99.90
15959;DHT22;8078;47.822;9.402;2023-03-14T15:28:26;4.80;99.90
15959;DHT22;8078;47.822;9.402;2023-03-14T15:30:55;4.80;99.90
15959;DHT22;8078;47.822;9.402;2023-03-14T15:33:21;4.80;99.90
15959;DHT22;8078;47.822;9.402;2023-03-14T15:35:48;4.80;99.90
15959;DHT22;8078;47.822;9.402;2023-03-14T15:38:17;4.80;99.90
15959;DHT22;8078;47.822;9.402;2023-03-14T15:40:46;4.70;99.90
15959;DHT22;8078;47.822;9.402;2023-03-14T15:43:12;4.70;99.90
15959;DHT22;8078;47.822;9.402;2023-03-14T15:45:38;4.70;99.90
15959;DHT22;8078;47.822;9.402;2023-03-14T15:48:04;4.80;99.90
15959;DHT22;8078;47.822;9.402;2023-03-14T15:50:29;4.90;99.90
15959;DHT22;8078;47.822;9.402;2023-03-14T15:52:55;4.90;99.90
15959;DHT22;8078;47.822;9.402;2023-03-14T15:55:22;4.90;99.90
15959;DHT22;8078;47.822;9.402;2023-03-14T15:57:48;4.90;99.90
15959;DHT22;8078;47.822;9.402;2023-03-14T16:00:16;4.90;99.90
15959;DHT22;8078;47.822;9.402;2023-03-14T16:02:47;4.90;99.90
15959;DHT22;8078;47.822;9.402;2023-03-14T16:05:13;4.80;99.90
15959;DHT22;8078;47.822;9.402;2023-03-14T16:07:39;4.80;99.90
15959;DHT22;8078;47.822;9.402;2023-03-14T16:10:06;4.80;99.90
15959;DHT22;8078;47.822;9.402;2023-03-14T16:12:33;4.80;99.90
15959;DHT22;8078;47.822;9.402;2023-03-14T16:14:59;4.80;99.90
15959;DHT22;8078;47.822;9.402;2023-03-14T16:17:25;4.70;99.90
15959;DHT22;8078;47.822;9.402;2023-03-14T16:19:50;4.70;99.90
15959;DHT22;8078;47.822;9.402;2023-03-14T16:22:16;4.70;99.90
15959;DHT22;8078;47.822;9.402;2023-03-14T16:24:41;4.70;99.90
15959;DHT22;8078;47.822;9.402;2023-03-14T16:27:07;4.60;99.90
15959;DHT22;8078;47.822;9.402;2023-03-14T16:29:33;4.70;99.90
15959;DHT22;8078;47.822;9.402;2023-03-14T16:31:58;4.70;99.90
15959;DHT22;8078;47.822;9.402;2023-03-14T16:34:24;4.70;99.90
15959;DHT22;8078;47.822;9.402;2023-03-14T16:36:50;4.70;99.90
15959;DHT22;8078;47.822;9.402;2023-03-14T16:39:17;4.60;99.90
15959;DHT22;8078;47.822;9.402;2023-03-14T16:41:42;4.70;99.90
15959;DHT22;8078;47.822;9.402;2023-03-14T16:44:08;4.80;99.90
15959;DHT22;8078;47.822;9.402;2023-03-14T16:46:33;4.80;99.90
15959;DHT22;8078;47.822;9.402;2023-03-14T16:49:01;4.80;99.90
15959;DHT22;8078;47.822;9.402;2023-03-14T16:51:26;4.70;99.90
15959;DHT22;8078;47.822;9.402;2023-03-14T16:53:52;4.70;99.90
15959;DHT22;8078;47.822;9.402;2023-03-14T16:56:18;4.60;99.90
15959;DHT22;8078;47.822;9.402;2023-03-14T16:58:44;4.60;99.90
15959;DHT22;8078;47.822;9.402;2023-03-14T17:01:13;4.60;99.90
15959;DHT22;8078;47.822;9.402;2023-03-14T17:03:49;4.50;99.90
15959;DHT22;8078;47.822;9.402;2023-03-14T17:06:17;4.40;99.90
15959;DHT22;8078;47.822;9.402;2023-03-14T17:08:43;4.40;99.90
15959;DHT22;8078;47.822;9.402;2023-03-14T17:11:09;4.40;99.90
15959;DHT22;8078;47.822;9.402;2023-03-14T17:13:35;4.40;99.90
15959;DHT22;8078;47.822;9.402;2023-03-14T17:16:01;4.30;99.90
15959;DHT22;8078;47.822;9.402;2023-03-14T17:18:28;4.30;99.90